createdAt,value
2023-04-17T00:01:32.419Z,9.98
2023-04-17T00:04:00.523Z,9.94
2023-04-17T00:06:29.011Z,9.91
2023-04-17T00:08:56.869Z,9.86
2023-04-17T00:11:24.817Z,9.83
2023-04-17T00:13:52.769Z,9.85
2023-04-17T00:16:20.655Z,9.86
2023-04-17T00:18:48.598Z,9.85
2023-04-17T00:21:16.503Z,9.85
2023-04-17T00:23:46.044Z,9.85
2023-04-17T00:26:13.908Z,9.87
2023-04-17T00:28:43.183Z,9.91
2023-04-17T00:31:11.036Z,9.96
2023-04-17T00:33:38.989Z,9.91
2023-04-17T00:36:07.751Z,9.88
2023-04-17T00:38:35.639Z,9.86
2023-04-17T00:41:03.492Z,9.86
2023-04-17T00:43:31.470Z,9.81
2023-04-17T00:46:00.195Z,9.77
2023-04-17T00:48:28.799Z,9.78
2023-04-17T00:51:02.234Z,9.76
2023-04-17T00:53:33.961Z,9.76
2023-04-17T00:56:05.643Z,9.71
2023-04-17T00:58:35.977Z,9.70
2023-04-17T01:01:06.357Z,9.67
2023-04-17T01:03:35.054Z,9.66
2023-04-17T01:06:03.864Z,9.65
2023-04-17T01:08:41.642Z,9.66
2023-04-17T01:11:10.599Z,9.60
2023-04-17T01:13:49.162Z,9.62
2023-04-17T01:16:18.630Z,9.55
2023-04-17T01:18:48.522Z,9.56
2023-04-17T01:21:16.797Z,9.59
2023-04-17T01:23:52.043Z,9.59
2023-04-17T01:26:23.639Z,9.55
2023-04-17T01:28:56.329Z,9.57
2023-04-17T01:31:26.375Z,9.61
2023-04-17T01:33:54.956Z,9.62
2023-04-17T01:36:22.967Z,9.62
2023-04-17T01:38:50.982Z,9.61
2023-04-17T01:41:19.546Z,9.61
2023-04-17T01:43:47.702Z,9.60
2023-04-17T01:46:16.033Z,9.57
2023-04-17T01:48:44.065Z,9.57
2023-04-17T01:51:11.989Z,9.58
2023-04-17T01:53:40.704Z,9.55
2023-04-17T01:56:08.811Z,9.45
2023-04-17T01:58:36.871Z,9.45
2023-04-17T02:01:06.802Z,9.45
2023-04-17T02:03:35.031Z,9.42
2023-04-17T02:06:03.236Z,9.40
2023-04-17T02:08:31.184Z,9.41
2023-04-17T02:10:59.959Z,9.39
2023-04-17T02:13:28.245Z,9.38
2023-04-17T02:15:57.318Z,9.39
2023-04-17T02:18:30.438Z,9.39
2023-04-17T02:21:01.545Z,9.39
2023-04-17T02:23:29.625Z,9.40
2023-04-17T02:25:58.002Z,9.41
2023-04-17T02:28:25.930Z,9.39
2023-04-17T02:30:53.944Z,9.35
2023-04-17T02:33:22.136Z,9.35
2023-04-17T02:35:50.723Z,9.38
2023-04-17T02:38:20.838Z,9.37
2023-04-17T02:40:48.703Z,9.34
2023-04-17T02:43:17.336Z,9.35
2023-04-17T02:45:45.509Z,9.34
2023-04-17T02:48:15.511Z,9.31
2023-04-17T02:50:43.437Z,9.30
2023-04-17T02:53:15.879Z,9.31
2023-04-17T02:55:43.719Z,9.28
2023-04-17T02:58:11.612Z,9.30
2023-04-17T03:00:40.510Z,9.29
2023-04-17T03:03:10.324Z,9.32
2023-04-17T03:05:38.469Z,9.36
2023-04-17T03:08:06.828Z,9.30
2023-04-17T03:10:42.554Z,9.29
2023-04-17T03:13:10.521Z,9.27
2023-04-17T03:15:38.698Z,9.24
2023-04-17T03:18:06.682Z,9.23
2023-04-17T03:20:34.696Z,9.21
2023-04-17T03:23:02.587Z,9.22
2023-04-17T03:25:30.673Z,9.24
2023-04-17T03:27:58.478Z,9.24
2023-04-17T03:30:30.983Z,9.23
2023-04-17T03:33:01.264Z,9.23
2023-04-17T03:35:31.342Z,9.22
2023-04-17T03:37:59.299Z,9.24
2023-04-17T03:40:27.294Z,9.26
2023-04-17T03:42:55.999Z,9.24
2023-04-17T03:45:25.360Z,9.24
2023-04-17T03:47:53.277Z,9.22
2023-04-17T03:50:21.255Z,9.21
2023-04-17T03:52:56.416Z,9.13
2023-04-17T03:55:25.990Z,9.08
2023-04-17T03:57:54.887Z,9.05
2023-04-17T04:00:24.879Z,9.04
2023-04-17T04:02:56.567Z,9.09
2023-04-17T04:05:28.720Z,9.09
2023-04-17T04:07:57.576Z,9.09
2023-04-17T04:10:32.745Z,9.12
2023-04-17T04:13:01.106Z,9.14
2023-04-17T04:15:29.499Z,9.13
2023-04-17T04:18:00.573Z,9.11
2023-04-17T04:20:28.990Z,9.05
2023-04-17T04:23:04.807Z,9.06
2023-04-17T04:25:34.272Z,9.11
2023-04-17T04:28:17.973Z,9.09
2023-04-17T04:30:50.762Z,9.08
2023-04-17T04:33:20.849Z,9.13
2023-04-17T04:35:51.450Z,9.13
2023-04-17T04:38:20.154Z,9.19
2023-04-17T04:40:50.150Z,9.19
2023-04-17T04:43:20.835Z,9.14
2023-04-17T04:45:52.316Z,9.15
2023-04-17T04:48:20.519Z,9.09
2023-04-17T04:50:48.555Z,9.09
2023-04-17T04:53:17.229Z,9.03
2023-04-17T04:55:56.682Z,8.99
2023-04-17T04:58:24.813Z,8.96
2023-04-17T05:00:53.384Z,8.97
2023-04-17T05:03:26.942Z,8.96
2023-04-17T05:05:55.540Z,8.95
2023-04-17T05:08:25.798Z,8.92
2023-04-17T05:11:01.534Z,8.88
2023-04-17T05:13:30.563Z,8.87
2023-04-17T05:16:01.472Z,8.89
2023-04-17T05:18:30.621Z,8.91
2023-04-17T05:20:59.665Z,8.94
2023-04-17T05:23:28.482Z,8.97
2023-04-17T05:25:56.401Z,8.98
2023-04-17T05:28:27.424Z,8.93
2023-04-17T05:30:57.661Z,8.92
2023-04-17T05:33:33.236Z,8.95
2023-04-17T05:36:02.985Z,8.98
2023-04-17T05:38:33.025Z,9.08
2023-04-17T05:41:02.208Z,9.13
2023-04-17T05:43:30.551Z,9.22
2023-04-17T05:45:58.730Z,9.28
2023-04-17T05:48:26.838Z,9.31
2023-04-17T05:50:54.774Z,9.37
2023-04-17T05:53:24.203Z,9.42
2023-04-17T05:55:56.013Z,9.53
2023-04-17T05:58:24.600Z,9.73
2023-04-17T06:00:57.052Z,9.82
2023-04-17T06:03:26.969Z,9.92
2023-04-17T06:06:01.630Z,9.93
2023-04-17T06:08:29.659Z,10.02
2023-04-17T06:10:58.061Z,10.06
2023-04-17T06:13:26.094Z,10.08
2023-04-17T06:15:54.517Z,10.15
2023-04-17T06:18:22.456Z,10.15
2023-04-17T06:20:51.054Z,10.13
2023-04-17T06:23:18.980Z,10.16
2023-04-17T06:25:46.940Z,10.20
2023-04-17T06:28:14.842Z,10.18
2023-04-17T06:30:43.480Z,10.28
2023-04-17T06:33:11.341Z,10.32
2023-04-17T06:35:41.130Z,10.31
2023-04-17T06:38:25.050Z,10.29
2023-04-17T06:40:53.004Z,10.12
2023-04-17T06:43:21.230Z,10.16
2023-04-17T06:45:49.251Z,10.22
2023-04-17T06:48:17.312Z,10.23
2023-04-17T06:50:45.257Z,10.18
2023-04-17T06:53:14.216Z,10.21
2023-04-17T06:55:42.190Z,10.28
2023-04-17T06:58:10.173Z,10.29
2023-04-17T07:00:38.059Z,10.35
2023-04-17T07:03:06.381Z,10.24
2023-04-17T07:05:34.640Z,10.28
2023-04-17T07:08:02.431Z,10.33
2023-04-17T07:10:30.287Z,10.35
2023-04-17T07:12:58.211Z,10.33
2023-04-17T07:15:30.641Z,10.35
2023-04-17T07:17:58.965Z,10.42
2023-04-17T07:20:27.020Z,10.42
2023-04-17T07:22:55.671Z,10.38
2023-04-17T07:25:23.755Z,10.43
2023-04-17T07:27:51.684Z,10.49
2023-04-17T07:30:19.570Z,10.56
2023-04-17T07:32:47.444Z,10.58
2023-04-17T07:35:15.440Z,10.57
2023-04-17T07:37:43.327Z,10.63
2023-04-17T07:40:11.982Z,10.64
2023-04-17T07:42:39.845Z,10.68
2023-04-17T07:45:08.572Z,10.78
2023-04-17T07:47:36.930Z,10.76
2023-04-17T07:50:05.436Z,10.69
2023-04-17T07:52:33.390Z,10.60
2023-04-17T07:55:01.324Z,10.66
2023-04-17T07:57:29.276Z,10.67
2023-04-17T07:59:57.269Z,10.71
2023-04-17T08:02:25.262Z,10.81
2023-04-17T08:04:54.471Z,10.85
2023-04-17T08:07:22.907Z,10.81
2023-04-17T08:09:51.240Z,10.69
2023-04-17T08:12:19.077Z,10.68
2023-04-17T08:14:46.948Z,10.70
2023-04-17T08:17:18.194Z,10.61
2023-04-17T08:19:46.047Z,10.67
2023-04-17T08:22:14.259Z,10.73
2023-04-17T08:24:42.726Z,10.79
2023-04-17T08:27:10.751Z,10.81
2023-04-17T08:29:39.837Z,10.88
2023-04-17T08:32:14.613Z,10.97
2023-04-17T08:34:44.916Z,10.92
2023-04-17T08:37:13.138Z,10.83
2023-04-17T08:39:52.509Z,10.90
2023-04-17T08:42:24.881Z,10.89
2023-04-17T08:44:59.540Z,10.93
2023-04-17T08:47:28.941Z,10.94
2023-04-17T08:49:58.090Z,10.84
2023-04-17T08:52:26.030Z,11.03
2023-04-17T08:54:54.890Z,11.24
2023-04-17T08:57:22.759Z,11.32
2023-04-17T08:59:50.633Z,11.21
2023-04-17T09:02:18.641Z,11.14
2023-04-17T09:04:47.889Z,11.37
2023-04-17T09:07:16.794Z,11.66
2023-04-17T09:09:50.613Z,11.75
2023-04-17T09:12:20.937Z,11.78
2023-04-17T09:14:49.523Z,11.92
2023-04-17T09:17:19.643Z,12.07
2023-04-17T09:20:07.593Z,12.34
2023-04-17T09:22:37.781Z,12.65
2023-04-17T09:25:19.400Z,12.88
2023-04-17T09:27:47.353Z,12.98
2023-04-17T09:30:15.549Z,13.10
2023-04-17T09:32:43.571Z,13.11
2023-04-17T09:35:25.821Z,13.06
2023-04-17T09:37:55.615Z,12.95
2023-04-17T09:40:25.480Z,12.98
2023-04-17T09:43:05.167Z,13.08
2023-04-17T09:45:42.857Z,13.21
2023-04-17T09:48:13.171Z,13.28
2023-04-17T09:50:41.102Z,13.25
2023-04-17T09:53:09.117Z,13.30
2023-04-17T09:55:41.724Z,13.30
2023-04-17T09:58:10.793Z,13.36
2023-04-17T10:00:41.818Z,13.50
2023-04-17T10:03:10.206Z,13.40
2023-04-17T10:05:38.679Z,13.43
2023-04-17T10:08:07.634Z,13.39
2023-04-17T10:10:36.600Z,13.40
2023-04-17T10:13:08.312Z,13.42
2023-04-17T10:15:39.668Z,13.45
2023-04-17T10:18:21.011Z,13.53
2023-04-17T10:20:50.537Z,13.61
2023-04-17T10:23:31.575Z,13.50
2023-04-17T10:26:24.961Z,13.40
2023-04-17T10:28:54.969Z,13.30
2023-04-17T10:31:23.886Z,13.36
2023-04-17T10:33:54.582Z,13.28
2023-04-17T10:36:40.964Z,13.04
2023-04-17T10:39:17.565Z,12.92
2023-04-17T10:42:18.034Z,12.94
2023-04-17T10:44:47.016Z,13.05
2023-04-17T10:47:15.005Z,13.21
2023-04-17T10:49:54.901Z,13.23
2023-04-17T10:52:45.599Z,13.20
2023-04-17T10:55:22.129Z,13.23
2023-04-17T10:57:58.927Z,13.36
2023-04-17T11:00:52.817Z,13.33
2023-04-17T11:03:23.315Z,13.42
2023-04-17T11:05:52.553Z,13.55
2023-04-17T11:08:20.466Z,13.71
2023-04-17T11:10:53.727Z,13.86
2023-04-17T11:13:22.428Z,13.90
2023-04-17T11:15:50.864Z,14.05
2023-04-17T11:18:21.939Z,14.09
2023-04-17T11:20:50.172Z,14.14
2023-04-17T11:23:19.214Z,14.23
2023-04-17T11:25:47.503Z,14.34
2023-04-17T11:28:15.495Z,14.49
2023-04-17T11:30:45.147Z,14.65
2023-04-17T11:33:13.291Z,14.47
2023-04-17T11:35:43.391Z,14.50
2023-04-17T11:38:20.945Z,14.56
2023-04-17T11:40:52.277Z,14.37
2023-04-17T11:43:21.718Z,14.23
2023-04-17T11:45:54.910Z,14.14
2023-04-17T11:48:28.036Z,14.26
2023-04-17T11:50:58.653Z,14.40
2023-04-17T11:53:27.194Z,14.28
2023-04-17T11:56:18.704Z,14.12
2023-04-17T11:58:54.740Z,13.83
2023-04-17T12:01:25.572Z,13.88
2023-04-17T12:03:54.937Z,13.95
2023-04-17T12:06:24.327Z,13.90
2023-04-17T12:08:55.796Z,14.01
2023-04-17T12:11:26.679Z,14.14
2023-04-17T12:13:56.435Z,14.34
2023-04-17T12:16:26.309Z,14.42
2023-04-17T12:18:54.361Z,14.57
2023-04-17T12:21:23.808Z,14.72
2023-04-17T12:23:52.279Z,14.74
2023-04-17T12:26:20.507Z,14.79
2023-04-17T12:28:48.401Z,14.83
2023-04-17T12:31:16.330Z,14.86
2023-04-17T12:33:44.212Z,14.99
2023-04-17T12:36:12.183Z,15.02
2023-04-17T12:38:42.956Z,14.93
2023-04-17T12:41:11.051Z,14.79
2023-04-17T12:43:39.037Z,14.76
2023-04-17T12:46:07.235Z,14.79
2023-04-17T12:48:35.187Z,14.73
2023-04-17T12:51:03.247Z,14.94
2023-04-17T12:53:31.182Z,14.93
2023-04-17T12:55:59.415Z,15.01
2023-04-17T12:58:27.577Z,15.12
2023-04-17T13:00:55.771Z,15.20
2023-04-17T13:03:23.807Z,15.25
2023-04-17T13:05:53.418Z,15.39
2023-04-17T13:08:21.667Z,15.35
2023-04-17T13:10:49.675Z,15.28
2023-04-17T13:13:17.588Z,15.33
2023-04-17T13:15:47.500Z,15.62
2023-04-17T13:18:15.816Z,15.92
2023-04-17T13:20:43.702Z,15.88
2023-04-17T13:23:12.101Z,15.83
2023-04-17T13:25:40.067Z,15.83
2023-04-17T13:28:08.125Z,15.78
2023-04-17T13:30:37.527Z,15.85
2023-04-17T13:33:05.712Z,16.03
2023-04-17T13:35:33.750Z,16.08
2023-04-17T13:38:03.247Z,16.08
2023-04-17T13:40:31.391Z,16.09
2023-04-17T13:43:00.560Z,16.16
2023-04-17T13:45:28.438Z,16.31
2023-04-17T13:47:56.392Z,16.48
2023-04-17T13:50:24.369Z,16.43
2023-04-17T13:52:52.307Z,16.40
2023-04-17T13:55:20.264Z,16.17
2023-04-17T13:57:48.230Z,16.09
2023-04-17T14:00:18.288Z,16.32
2023-04-17T14:02:46.606Z,16.30
2023-04-17T14:05:15.762Z,16.37
2023-04-17T14:07:44.702Z,16.19
2023-04-17T14:10:12.582Z,16.07
2023-04-17T14:12:40.518Z,16.07
2023-04-17T14:15:09.003Z,16.16
2023-04-17T14:17:41.175Z,16.17
2023-04-17T14:20:10.820Z,16.20
2023-04-17T14:22:39.198Z,16.17
2023-04-17T14:25:07.336Z,16.03
2023-04-17T14:27:36.424Z,16.03
2023-04-17T14:30:05.483Z,16.13
2023-04-17T14:32:33.392Z,16.33
2023-04-17T14:35:01.374Z,16.42
2023-04-17T14:37:29.283Z,16.42
2023-04-17T14:39:57.104Z,16.26
2023-04-17T14:42:24.952Z,16.08
2023-04-17T14:44:52.791Z,15.92
2023-04-17T14:47:20.715Z,15.68
2023-04-17T14:49:49.603Z,15.54
2023-04-17T14:52:17.398Z,15.32
2023-04-17T14:54:45.274Z,15.19
2023-04-17T14:57:13.264Z,15.11
2023-04-17T14:59:41.886Z,15.03
2023-04-17T15:02:10.939Z,15.01
2023-04-17T15:04:39.095Z,15.00
2023-04-17T15:07:06.943Z,15.03
2023-04-17T15:09:34.773Z,14.81
2023-04-17T15:12:02.702Z,14.77
2023-04-17T15:14:30.529Z,14.74
2023-04-17T15:16:59.208Z,14.69
2023-04-17T15:19:27.250Z,14.76
2023-04-17T15:21:55.143Z,14.96
2023-04-17T15:24:23.018Z,15.04
2023-04-17T15:26:51.415Z,15.16
2023-04-17T15:29:19.297Z,15.07
2023-04-17T15:31:47.155Z,14.99
2023-04-17T15:34:15.014Z,14.83
2023-04-17T15:36:43.075Z,14.74
2023-04-17T15:39:11.180Z,14.72
2023-04-17T15:41:42.404Z,14.84
2023-04-17T15:44:10.535Z,14.85
2023-04-17T15:46:38.505Z,14.79
2023-04-17T15:49:09.184Z,14.67
2023-04-17T15:51:39.518Z,15.22
2023-04-17T15:54:11.964Z,15.66
2023-04-17T15:56:40.333Z,15.67
2023-04-17T15:59:08.267Z,15.68
2023-04-17T16:01:36.159Z,15.79
2023-04-17T16:04:04.363Z,15.79
2023-04-17T16:06:32.556Z,16.15
2023-04-17T16:09:00.879Z,18.05
2023-04-17T16:11:28.822Z,19.74
2023-04-17T16:13:56.692Z,20.63
2023-04-17T16:16:24.551Z,21.51
2023-04-17T16:18:52.362Z,22.67
2023-04-17T16:21:20.442Z,23.07
2023-04-17T16:23:49.571Z,23.37
2023-04-17T16:26:17.462Z,23.94
2023-04-17T16:28:46.546Z,23.40
2023-04-17T16:31:16.807Z,23.58
2023-04-17T16:33:45.200Z,22.05
2023-04-17T16:36:13.164Z,19.78
2023-04-17T16:38:41.226Z,18.60
2023-04-17T16:41:09.136Z,18.11
2023-04-17T16:43:37.088Z,17.65
2023-04-17T16:46:11.147Z,16.94
2023-04-17T16:48:42.738Z,16.41
2023-04-17T16:51:10.659Z,16.90
2023-04-17T16:53:38.831Z,17.86
2023-04-17T16:56:07.517Z,18.35
2023-04-17T16:58:35.358Z,18.55
2023-04-17T17:01:03.392Z,18.84
2023-04-17T17:03:31.827Z,18.73
2023-04-17T17:06:03.516Z,18.97
2023-04-17T17:08:31.476Z,19.59
2023-04-17T17:10:59.426Z,19.86
2023-04-17T17:13:27.474Z,19.86
2023-04-17T17:15:55.333Z,19.48
2023-04-17T17:18:23.373Z,19.20
2023-04-17T17:20:54.244Z,18.99
2023-04-17T17:23:22.317Z,18.84
2023-04-17T17:25:50.287Z,17.88
2023-04-17T17:28:18.223Z,16.85
2023-04-17T17:30:46.530Z,16.00
2023-04-17T17:33:14.438Z,15.33
2023-04-17T17:35:43.350Z,14.49
2023-04-17T17:38:12.143Z,13.98
2023-04-17T17:40:40.193Z,13.51
2023-04-17T17:43:08.149Z,13.13
2023-04-17T17:45:36.021Z,12.83
2023-04-17T17:48:04.834Z,12.67
2023-04-17T17:50:32.775Z,12.49
2023-04-17T17:53:00.808Z,12.23
2023-04-17T17:55:28.688Z,12.00
2023-04-17T17:57:56.531Z,11.80
2023-04-17T18:00:24.523Z,11.66
2023-04-17T18:02:52.706Z,11.54
2023-04-17T18:05:21.221Z,11.42
2023-04-17T18:07:49.299Z,11.27
2023-04-17T18:10:17.572Z,11.16
2023-04-17T18:12:46.135Z,11.03
2023-04-17T18:15:13.987Z,10.89
2023-04-17T18:17:41.882Z,10.87
2023-04-17T18:20:10.134Z,10.80
2023-04-17T18:22:38.504Z,10.71
2023-04-17T18:25:07.760Z,10.60
2023-04-17T18:27:36.904Z,10.50
2023-04-17T18:30:09.559Z,10.43
2023-04-17T18:32:38.943Z,10.41
2023-04-17T18:35:07.563Z,10.44
2023-04-17T18:37:35.924Z,10.48
2023-04-17T18:40:05.926Z,10.51
2023-04-17T18:42:34.165Z,10.52
2023-04-17T18:45:02.500Z,10.50
2023-04-17T18:47:30.935Z,10.49
2023-04-17T18:49:58.963Z,10.43
2023-04-17T18:52:26.983Z,10.28
2023-04-17T18:54:55.232Z,10.21
2023-04-17T18:57:23.355Z,10.17
2023-04-17T18:59:51.865Z,10.02
2023-04-17T19:02:19.800Z,9.96
2023-04-17T19:04:47.863Z,9.92
2023-04-17T19:07:15.933Z,9.89
2023-04-17T19:09:45.018Z,9.87
2023-04-17T19:12:13.495Z,9.81
2023-04-17T19:14:41.724Z,9.75
2023-04-17T19:17:09.946Z,9.70
2023-04-17T19:19:38.167Z,9.72
2023-04-17T19:22:06.117Z,9.67
2023-04-17T19:24:34.025Z,9.61
2023-04-17T19:27:02.234Z,9.61
2023-04-17T19:29:30.891Z,9.56
2023-04-17T19:32:00.514Z,9.55
2023-04-17T19:34:28.552Z,9.55
2023-04-17T19:36:56.919Z,9.55
2023-04-17T19:39:27.832Z,9.50
2023-04-17T19:41:56.029Z,9.52
2023-04-17T19:44:25.920Z,9.48
2023-04-17T19:46:56.857Z,9.52
2023-04-17T19:49:24.929Z,9.57
2023-04-17T19:51:53.050Z,9.64
2023-04-17T19:54:20.928Z,9.65
2023-04-17T19:56:48.920Z,9.69
2023-04-17T19:59:16.791Z,9.78
2023-04-17T20:01:45.021Z,9.84
2023-04-17T20:04:13.085Z,9.76
2023-04-17T20:06:41.372Z,9.77
2023-04-17T20:09:11.903Z,9.74
2023-04-17T20:11:41.192Z,9.77
2023-04-17T20:14:09.410Z,9.77
2023-04-17T20:16:37.301Z,9.73
2023-04-17T20:19:05.257Z,9.71
2023-04-17T20:21:33.172Z,9.62
2023-04-17T20:24:01.056Z,9.62
2023-04-17T20:26:28.999Z,9.61
2023-04-17T20:28:56.813Z,9.57
2023-04-17T20:31:24.722Z,9.56
2023-04-17T20:33:52.650Z,9.57
2023-04-17T20:36:20.496Z,9.50
2023-04-17T20:38:48.394Z,9.52
2023-04-17T20:41:16.258Z,9.51
2023-04-17T20:43:44.476Z,9.52
2023-04-17T20:46:12.345Z,9.42
2023-04-17T20:48:40.199Z,9.38
2023-04-17T20:51:08.036Z,9.33
2023-04-17T20:53:35.904Z,9.32
2023-04-17T20:56:04.612Z,9.36
2023-04-17T20:58:32.479Z,9.32
2023-04-17T21:01:01.901Z,9.27
2023-04-17T21:03:31.188Z,9.21
2023-04-17T21:06:00.024Z,9.22
2023-04-17T21:08:28.296Z,9.20
2023-04-17T21:10:57.032Z,9.22
2023-04-17T21:13:25.023Z,9.24
2023-04-17T21:15:52.923Z,9.20
2023-04-17T21:18:20.777Z,9.17
2023-04-17T21:20:48.641Z,9.14
2023-04-17T21:23:16.521Z,9.13
2023-04-17T21:25:44.436Z,9.20
2023-04-17T21:28:12.424Z,9.10
2023-04-17T21:30:40.298Z,9.10
2023-04-17T21:33:08.175Z,9.06
2023-04-17T21:35:36.828Z,9.11
2023-04-17T21:38:04.843Z,9.09
2023-04-17T21:40:33.675Z,9.23
2023-04-17T21:43:01.833Z,9.20
2023-04-17T21:45:31.512Z,9.21
2023-04-17T21:47:59.512Z,9.21
2023-04-17T21:50:27.376Z,9.16
2023-04-17T21:52:55.824Z,9.25
2023-04-17T21:55:23.772Z,9.22
2023-04-17T21:57:51.658Z,9.18
2023-04-17T22:00:19.703Z,9.20
2023-04-17T22:02:47.685Z,9.18
2023-04-17T22:05:15.879Z,9.25
2023-04-17T22:07:54.456Z,9.24
2023-04-17T22:10:24.344Z,9.19
2023-04-17T22:12:52.416Z,9.12
2023-04-17T22:15:20.470Z,9.15
2023-04-17T22:17:48.609Z,9.16
2023-04-17T22:20:16.572Z,9.18
2023-04-17T22:22:46.134Z,9.14
2023-04-17T22:25:14.385Z,9.15
2023-04-17T22:27:42.235Z,9.17
2023-04-17T22:30:10.632Z,9.12
2023-04-17T22:32:38.592Z,9.14
2023-04-17T22:35:07.513Z,9.14
2023-04-17T22:37:35.642Z,9.04
2023-04-17T22:40:04.920Z,9.03
2023-04-17T22:42:32.806Z,8.95
2023-04-17T22:45:00.780Z,8.92
2023-04-17T22:47:28.778Z,9.00
2023-04-17T22:49:56.813Z,9.05
2023-04-17T22:52:24.723Z,9.00
2023-04-17T22:54:52.638Z,8.97
2023-04-17T22:57:20.517Z,8.99
2023-04-17T22:59:48.435Z,9.04
2023-04-17T23:02:16.807Z,9.04
2023-04-17T23:04:45.675Z,9.01
2023-04-17T23:07:13.648Z,8.96
2023-04-17T23:09:41.464Z,9.05
2023-04-17T23:12:09.293Z,9.08
2023-04-17T23:14:37.127Z,9.05
2023-04-17T23:17:06.099Z,9.05
2023-04-17T23:19:34.017Z,9.02
2023-04-17T23:22:02.253Z,9.03
2023-04-17T23:24:34.340Z,9.01
2023-04-17T23:27:02.368Z,8.97
2023-04-17T23:29:30.388Z,8.95
2023-04-17T23:31:58.266Z,8.93
2023-04-17T23:34:27.897Z,8.92
2023-04-17T23:36:55.703Z,8.90
2023-04-17T23:39:23.883Z,8.81
2023-04-17T23:41:51.701Z,8.85
2023-04-17T23:44:19.505Z,8.74
2023-04-17T23:46:47.656Z,8.78
2023-04-17T23:49:15.607Z,8.81
2023-04-17T23:51:43.480Z,8.80
2023-04-17T23:54:11.598Z,8.87
2023-04-17T23:56:39.802Z,8.94
2023-04-17T23:59:07.597Z,8.92
